createdAt,value
2018-07-09T00:02:30.217Z,5.47
2018-07-09T00:05:02.635Z,5.03
2018-07-09T00:07:34.781Z,5.70
2018-07-09T00:10:07.270Z,6.60
2018-07-09T00:12:39.403Z,5.60
2018-07-09T00:15:11.576Z,5.30
2018-07-09T00:17:43.874Z,5.60
2018-07-09T00:20:16.114Z,5.07
2018-07-09T00:22:48.282Z,5.00
2018-07-09T00:25:20.567Z,5.30
2018-07-09T00:27:53.155Z,5.20
2018-07-09T00:30:25.523Z,5.63
2018-07-09T00:32:58.863Z,6.13
2018-07-09T00:35:31.003Z,5.80
2018-07-09T00:38:03.592Z,5.57
2018-07-09T00:40:36.196Z,5.37
2018-07-09T00:43:08.459Z,5.90
2018-07-09T00:45:40.665Z,4.67
2018-07-09T00:48:12.871Z,6.20
2018-07-09T00:50:45.090Z,5.70
2018-07-09T00:53:18.151Z,5.60
2018-07-09T00:55:50.290Z,6.23
2018-07-09T00:58:22.717Z,6.07
2018-07-09T01:00:54.965Z,6.03
2018-07-09T01:03:27.099Z,6.13
2018-07-09T01:05:59.279Z,6.00
2018-07-09T01:08:31.430Z,6.30
2018-07-09T01:11:15.168Z,5.60
2018-07-09T01:13:47.290Z,6.00
2018-07-09T01:16:19.735Z,6.60
2018-07-09T01:18:51.889Z,5.93
2018-07-09T01:21:25.200Z,7.30
2018-07-09T01:23:57.372Z,7.20
2018-07-09T01:26:29.502Z,6.50
2018-07-09T01:29:01.653Z,5.73
2018-07-09T01:31:33.822Z,6.10
2018-07-09T01:34:05.943Z,6.07
2018-07-09T01:36:37.999Z,6.53
2018-07-09T01:39:10.162Z,6.17
2018-07-09T01:41:42.419Z,6.80
2018-07-09T01:44:14.593Z,6.53
2018-07-09T01:46:46.784Z,7.17
2018-07-09T01:49:18.869Z,6.27
2018-07-09T01:51:54.208Z,6.50
2018-07-09T01:54:26.314Z,6.80
2018-07-09T01:56:58.466Z,6.70
2018-07-09T01:59:30.580Z,6.87
2018-07-09T02:02:02.697Z,5.93
2018-07-09T02:04:34.889Z,6.50
2018-07-09T02:07:07.628Z,6.63
2018-07-09T02:09:39.756Z,6.87
2018-07-09T02:12:11.916Z,5.97
2018-07-09T02:14:44.072Z,6.60
2018-07-09T02:17:16.271Z,6.43
2018-07-09T02:19:48.479Z,7.07
2018-07-09T02:22:20.672Z,6.70
2018-07-09T02:24:52.882Z,6.60
2018-07-09T02:27:25.046Z,7.00
2018-07-09T02:29:57.193Z,6.50
2018-07-09T02:32:29.353Z,6.60
2018-07-09T02:35:01.540Z,7.30
2018-07-09T02:37:33.679Z,7.40
2018-07-09T02:40:05.805Z,6.83
2018-07-09T02:42:37.931Z,7.67
2018-07-09T02:45:10.134Z,6.90
2018-07-09T02:47:42.273Z,6.60
2018-07-09T02:50:14.510Z,7.30
2018-07-09T02:52:46.687Z,7.40
2018-07-09T02:55:18.851Z,6.77
2018-07-09T02:57:51.042Z,6.57
2018-07-09T03:00:23.231Z,7.60
2018-07-09T03:02:55.407Z,6.97
2018-07-09T03:05:27.629Z,7.20
2018-07-09T03:07:59.800Z,6.90
2018-07-09T03:10:32.024Z,7.20
2018-07-09T03:13:04.209Z,6.10
2018-07-09T03:15:36.455Z,6.90
2018-07-09T03:18:08.628Z,6.30
2018-07-09T03:20:40.799Z,7.20
2018-07-09T03:23:13.001Z,7.00
2018-07-09T03:25:45.195Z,8.00
2018-07-09T03:28:17.335Z,6.93
2018-07-09T03:30:49.475Z,6.57
2018-07-09T03:33:21.655Z,7.03
2018-07-09T03:35:53.870Z,7.53
2018-07-09T03:38:26.024Z,7.80
2018-07-09T03:40:58.188Z,7.53
2018-07-09T03:43:30.337Z,8.20
2018-07-09T03:46:02.819Z,8.23
2018-07-09T03:48:34.980Z,8.00
2018-07-09T03:51:07.748Z,6.83
2018-07-09T03:53:40.007Z,8.10
2018-07-09T03:56:12.103Z,7.50
2018-07-09T03:58:44.221Z,6.43
2018-07-09T04:01:16.384Z,7.80
2018-07-09T04:03:48.517Z,7.47
2018-07-09T04:06:20.629Z,7.03
2018-07-09T04:08:52.736Z,7.80
2018-07-09T04:11:24.856Z,8.47
2018-07-09T04:13:56.993Z,8.17
2018-07-09T04:16:29.089Z,9.00
2018-07-09T04:19:01.200Z,7.60
2018-07-09T04:21:33.305Z,8.10
2018-07-09T04:24:05.454Z,7.40
2018-07-09T04:26:37.553Z,7.37
2018-07-09T04:29:09.647Z,8.70
2018-07-09T04:31:41.788Z,8.10
2018-07-09T04:34:13.933Z,7.27
2018-07-09T04:36:46.076Z,6.93
2018-07-09T04:39:18.233Z,7.33
2018-07-09T04:41:50.374Z,7.33
2018-07-09T04:44:22.462Z,6.53
2018-07-09T04:46:54.589Z,6.43
2018-07-09T04:49:26.683Z,5.90
2018-07-09T04:51:58.840Z,6.17
2018-07-09T04:54:31.024Z,7.00
2018-07-09T04:57:03.273Z,7.53
2018-07-09T04:59:35.625Z,7.17
2018-07-09T05:02:07.745Z,6.73
2018-07-09T05:04:39.907Z,7.50
2018-07-09T05:07:12.109Z,6.83
2018-07-09T05:09:44.262Z,6.70
2018-07-09T05:12:16.417Z,6.43
2018-07-09T05:14:48.602Z,7.40
2018-07-09T05:17:20.857Z,7.00
2018-07-09T05:19:53.040Z,6.57
2018-07-09T05:22:25.253Z,6.50
2018-07-09T05:24:57.429Z,7.40
2018-07-09T05:27:29.576Z,7.20
2018-07-09T05:30:01.910Z,6.90
2018-07-09T05:32:34.064Z,7.80
2018-07-09T05:35:06.683Z,6.80
2018-07-09T05:37:38.844Z,7.27
2018-07-09T05:40:11.012Z,7.20
2018-07-09T05:42:43.244Z,6.77
2018-07-09T05:45:15.461Z,6.20
2018-07-09T05:47:47.776Z,6.70
2018-07-09T05:50:20.068Z,6.37
2018-07-09T05:52:52.220Z,6.50
2018-07-09T05:55:24.386Z,6.87
2018-07-09T05:57:56.538Z,7.30
2018-07-09T06:00:28.719Z,6.93
2018-07-09T06:03:00.929Z,6.63
2018-07-09T06:05:33.157Z,7.10
2018-07-09T06:08:05.417Z,6.87
2018-07-09T06:10:37.568Z,6.73
2018-07-09T06:13:09.732Z,6.17
2018-07-09T06:15:41.856Z,6.77
2018-07-09T06:18:14.016Z,7.00
2018-07-09T06:20:46.192Z,6.43
2018-07-09T06:23:18.378Z,6.67
2018-07-09T06:25:50.546Z,6.43
2018-07-09T06:28:22.870Z,6.57
2018-07-09T06:30:55.123Z,6.77
2018-07-09T06:33:27.343Z,7.53
2018-07-09T06:35:59.593Z,7.03
2018-07-09T06:38:31.856Z,6.87
2018-07-09T06:41:04.124Z,6.73
2018-07-09T06:43:36.447Z,6.63
2018-07-09T06:46:08.663Z,6.77
2018-07-09T06:48:41.055Z,6.50
2018-07-09T06:51:13.295Z,5.90
2018-07-09T06:53:45.467Z,5.87
2018-07-09T06:56:17.634Z,6.07
2018-07-09T06:58:49.793Z,6.83
2018-07-09T07:01:21.932Z,6.00
2018-07-09T07:03:54.107Z,6.23
2018-07-09T07:06:26.246Z,9.70
2018-07-09T07:08:58.531Z,5.20
2018-07-09T07:11:30.537Z,5.70
2018-07-09T07:14:02.726Z,5.20
2018-07-09T07:16:34.836Z,5.77
2018-07-09T07:19:07.068Z,5.97
2018-07-09T07:21:39.266Z,6.10
2018-07-09T07:24:11.334Z,5.63
2018-07-09T07:26:43.566Z,5.90
2018-07-09T07:29:15.813Z,5.60
2018-07-09T07:31:47.929Z,5.40
2018-07-09T07:34:20.096Z,5.93
2018-07-09T07:36:52.324Z,5.80
2018-07-09T07:39:24.532Z,5.57
2018-07-09T07:41:56.558Z,5.40
2018-07-09T07:44:28.976Z,4.90
2018-07-09T07:47:01.236Z,4.60
2018-07-09T07:49:33.349Z,5.17
2018-07-09T07:52:05.517Z,5.60
2018-07-09T07:54:37.664Z,5.50
2018-07-09T07:57:10.035Z,5.50
2018-07-09T07:59:42.170Z,4.87
2018-07-09T08:02:14.382Z,5.43
2018-07-09T08:04:46.592Z,5.20
2018-07-09T08:07:18.841Z,4.83
2018-07-09T08:09:52.164Z,5.00
2018-07-09T08:14:57.486Z,5.30
2018-07-09T08:17:29.677Z,4.80
2018-07-09T08:20:01.960Z,4.37
2018-07-09T08:22:34.119Z,5.10
2018-07-09T08:25:06.325Z,4.90
2018-07-09T08:27:38.484Z,5.43
2018-07-09T08:30:10.739Z,5.37
2018-07-09T08:32:42.913Z,5.77
2018-07-09T08:35:15.094Z,5.10
2018-07-09T08:37:47.319Z,4.63
2018-07-09T08:40:19.533Z,5.30
2018-07-09T08:42:51.697Z,4.30
2018-07-09T08:45:23.847Z,5.20
2018-07-09T08:47:56.012Z,4.80
2018-07-09T08:50:28.145Z,5.03
2018-07-09T08:53:00.364Z,4.80
2018-07-09T08:55:32.568Z,4.80
2018-07-09T08:58:04.832Z,4.70
2018-07-09T09:00:37.033Z,5.67
2018-07-09T09:03:09.302Z,4.87
2018-07-09T09:05:41.407Z,4.40
2018-07-09T09:08:13.574Z,5.23
2018-07-09T09:13:49.064Z,5.57
2018-07-09T09:16:21.341Z,4.87
2018-07-09T09:18:53.551Z,5.23
2018-07-09T09:21:25.751Z,4.40
2018-07-09T09:23:57.919Z,5.50
2018-07-09T09:26:30.126Z,4.90
2018-07-09T09:29:03.367Z,5.40
2018-07-09T09:31:35.619Z,4.20
2018-07-09T09:34:07.699Z,5.23
2018-07-09T09:36:39.993Z,4.83
2018-07-09T09:39:13.104Z,5.00
2018-07-09T09:41:45.323Z,4.50
2018-07-09T09:44:17.540Z,4.00
2018-07-09T09:46:49.698Z,4.43
2018-07-09T09:49:21.888Z,4.80
2018-07-09T09:51:54.550Z,4.70
2018-07-09T09:54:26.863Z,5.47
2018-07-09T09:56:59.050Z,5.67
2018-07-09T09:59:31.198Z,5.50
2018-07-09T10:02:03.437Z,4.90
2018-07-09T10:04:35.601Z,4.57
2018-07-09T10:07:07.796Z,5.23
2018-07-09T10:09:39.952Z,4.33
2018-07-09T10:12:12.100Z,5.30
2018-07-09T10:14:44.317Z,5.03
2018-07-09T10:17:16.452Z,5.27
2018-07-09T10:19:48.583Z,4.87
2018-07-09T10:22:20.698Z,5.40
2018-07-09T10:24:52.935Z,5.13
2018-07-09T10:27:25.235Z,5.17
2018-07-09T10:29:57.439Z,5.00
2018-07-09T10:32:29.579Z,4.60
2018-07-09T10:35:03.134Z,4.20
2018-07-09T10:37:35.411Z,4.90
2018-07-09T10:40:07.520Z,4.97
2018-07-09T10:42:39.740Z,4.37
2018-07-09T10:45:11.969Z,4.40
2018-07-09T10:47:44.159Z,5.07
2018-07-09T10:50:16.307Z,4.07
2018-07-09T10:52:48.468Z,4.60
2018-07-09T10:55:20.780Z,4.67
2018-07-09T10:57:52.851Z,4.20
2018-07-09T11:00:25.044Z,5.20
2018-07-09T11:02:57.262Z,4.50
2018-07-09T11:05:29.556Z,4.67
2018-07-09T11:08:02.881Z,4.43
2018-07-09T11:10:36.111Z,4.40
2018-07-09T11:13:08.452Z,4.00
2018-07-09T11:15:40.657Z,5.03
2018-07-09T11:18:12.833Z,4.73
2018-07-09T11:20:44.999Z,4.73
2018-07-09T11:23:17.240Z,4.40
2018-07-09T11:25:49.362Z,5.20
2018-07-09T11:28:21.551Z,4.20
2018-07-09T11:30:53.700Z,3.80
2018-07-09T11:33:25.946Z,4.70
2018-07-09T11:36:00.265Z,4.13
2018-07-09T11:38:32.791Z,4.20
2018-07-09T11:41:05.305Z,4.17
2018-07-09T11:43:38.133Z,4.33
2018-07-09T11:46:14.220Z,4.60
2018-07-09T11:48:46.348Z,4.50
2018-07-09T11:51:18.474Z,4.47
2018-07-09T11:53:50.640Z,4.60
2018-07-09T11:56:22.894Z,4.77
2018-07-09T11:58:58.186Z,4.50
2018-07-09T12:01:30.376Z,4.37
2018-07-09T12:04:02.579Z,4.60
2018-07-09T12:06:34.775Z,4.60
2018-07-09T12:09:06.989Z,4.40
2018-07-09T12:11:39.258Z,5.10
2018-07-09T12:14:11.489Z,4.80
2018-07-09T12:16:43.644Z,4.53
2018-07-09T12:19:15.765Z,4.50
2018-07-09T12:21:47.918Z,4.77
2018-07-09T12:24:20.089Z,4.27
2018-07-09T12:26:52.230Z,5.10
2018-07-09T12:29:24.384Z,4.63
2018-07-09T12:31:56.692Z,5.00
2018-07-09T12:34:28.853Z,4.90
2018-07-09T12:37:01.225Z,4.40
2018-07-09T12:39:33.483Z,4.40
2018-07-09T12:42:05.689Z,4.40
2018-07-09T12:44:37.973Z,4.67
2018-07-09T12:47:10.131Z,3.90
2018-07-09T12:49:42.322Z,4.27
2018-07-09T12:52:14.521Z,4.20
2018-07-09T12:54:46.667Z,4.40
2018-07-09T12:57:18.818Z,4.20
2018-07-09T12:59:51.005Z,4.20
2018-07-09T13:02:23.120Z,4.30
2018-07-09T13:04:55.169Z,4.60
2018-07-09T13:07:27.343Z,3.93
2018-07-09T13:09:59.491Z,4.00
2018-07-09T13:12:31.551Z,3.60
2018-07-09T13:15:03.622Z,4.50
2018-07-09T13:17:36.864Z,4.13
2018-07-09T13:20:08.986Z,4.37
2018-07-09T13:22:41.056Z,3.87
2018-07-09T13:25:13.216Z,4.03
2018-07-09T13:27:45.335Z,4.27
2018-07-09T13:30:17.445Z,4.90
2018-07-09T13:32:49.574Z,4.40
2018-07-09T13:35:21.965Z,4.13
2018-07-09T13:37:54.069Z,4.37
2018-07-09T13:40:26.195Z,4.73
2018-07-09T13:42:58.281Z,4.30
2018-07-09T13:45:30.404Z,5.03
2018-07-09T13:48:02.568Z,4.87
2018-07-09T13:50:35.184Z,5.03
2018-07-09T13:53:07.323Z,4.40
2018-07-09T13:55:39.546Z,4.77
2018-07-09T13:58:11.689Z,4.47
2018-07-09T14:00:43.892Z,3.80
2018-07-09T14:03:16.041Z,4.03
2018-07-09T14:05:48.299Z,3.73
2018-07-09T14:08:20.491Z,4.10
2018-07-09T14:10:52.658Z,4.90
2018-07-09T14:13:24.800Z,4.30
2018-07-09T14:15:56.984Z,4.40
2018-07-09T14:18:29.219Z,4.87
2018-07-09T14:21:01.363Z,4.73
2018-07-09T14:23:33.598Z,4.53
2018-07-09T14:26:05.834Z,4.53
2018-07-09T14:28:37.986Z,4.90
2018-07-09T14:31:12.704Z,4.77
2018-07-09T14:33:44.975Z,4.80
2018-07-09T14:36:17.143Z,4.80
2018-07-09T14:38:49.341Z,5.60
2018-07-09T14:41:21.508Z,4.90
2018-07-09T14:43:54.800Z,5.13
2018-07-09T14:46:28.321Z,5.60
2018-07-09T14:49:00.589Z,5.30
2018-07-09T14:51:32.781Z,4.77
2018-07-09T14:54:05.048Z,5.70
2018-07-09T14:56:37.211Z,4.90
2018-07-09T14:59:09.471Z,4.80
2018-07-09T15:01:41.640Z,5.10
2018-07-09T15:04:13.866Z,4.57
2018-07-09T15:06:45.918Z,5.30
2018-07-09T15:09:18.025Z,5.00
2018-07-09T15:11:50.146Z,4.60
2018-07-09T15:14:23.122Z,4.70
2018-07-09T15:16:55.275Z,4.00
2018-07-09T15:19:27.365Z,4.70
2018-07-09T15:21:59.536Z,4.67
2018-07-09T15:24:31.765Z,4.87
2018-07-09T15:27:03.904Z,4.70
2018-07-09T15:29:36.006Z,5.50
2018-07-09T15:32:18.384Z,4.73
2018-07-09T15:34:50.944Z,4.63
2018-07-09T15:37:24.339Z,5.00
2018-07-09T15:39:56.435Z,4.27
2018-07-09T15:42:28.536Z,4.03
2018-07-09T15:45:00.648Z,5.47
2018-07-09T15:47:32.811Z,5.13
2018-07-09T15:50:06.012Z,4.43
2018-07-09T15:52:39.091Z,4.10
2018-07-09T15:55:12.289Z,4.20
2018-07-09T15:57:44.453Z,4.57
2018-07-09T16:00:16.576Z,4.37
2018-07-09T16:02:48.712Z,4.60
2018-07-09T16:05:20.926Z,4.10
2018-07-09T16:07:53.072Z,4.70
2018-07-09T16:10:25.292Z,5.00
2018-07-09T16:12:57.692Z,5.50
2018-07-09T16:15:29.760Z,6.13
2018-07-09T16:18:02.179Z,4.97
2018-07-09T16:20:34.292Z,5.33
2018-07-09T16:23:06.510Z,4.97
2018-07-09T16:25:38.685Z,5.47
2018-07-09T16:28:10.840Z,5.87
2018-07-09T16:30:43.021Z,5.30
2018-07-09T16:33:15.477Z,5.40
2018-07-09T16:35:47.614Z,5.00
2018-07-09T16:38:20.161Z,5.90
2018-07-09T16:40:52.424Z,5.07
2018-07-09T16:43:24.700Z,5.83
2018-07-09T16:45:56.893Z,4.60
2018-07-09T16:48:29.232Z,4.77
2018-07-09T16:51:01.419Z,4.80
2018-07-09T16:53:33.631Z,5.00
2018-07-09T16:56:06.045Z,4.70
2018-07-09T16:58:38.275Z,4.50
2018-07-09T17:01:10.491Z,5.17
2018-07-09T17:03:42.679Z,4.93
2018-07-09T17:06:14.815Z,4.80
2018-07-09T17:08:46.983Z,5.27
2018-07-09T17:11:19.188Z,4.80
2018-07-09T17:13:51.371Z,5.40
2018-07-09T17:16:23.511Z,4.53
2018-07-09T17:18:55.705Z,4.60
2018-07-09T17:21:27.924Z,4.63
2018-07-09T17:24:00.272Z,4.63
2018-07-09T17:26:32.555Z,6.20
2018-07-09T17:29:04.635Z,5.83
2018-07-09T17:31:36.802Z,4.87
2018-07-09T17:34:08.959Z,4.90
2018-07-09T17:36:41.155Z,5.40
2018-07-09T17:39:13.360Z,5.03
2018-07-09T17:41:45.552Z,5.37
2018-07-09T17:44:17.637Z,4.60
2018-07-09T17:46:49.764Z,5.23
2018-07-09T17:49:21.971Z,4.93
2018-07-09T17:51:54.205Z,5.00
2018-07-09T17:54:26.407Z,4.90
2018-07-09T17:56:58.655Z,5.07
2018-07-09T17:59:30.846Z,4.57
2018-07-09T18:02:03.091Z,4.73
2018-07-09T18:04:35.372Z,4.10
2018-07-09T18:07:07.551Z,4.83
2018-07-09T18:09:39.700Z,5.00
2018-07-09T18:12:11.810Z,4.80
2018-07-09T18:14:43.991Z,5.00
2018-07-09T18:17:16.190Z,5.43
2018-07-09T18:19:48.398Z,5.40
2018-07-09T18:22:21.208Z,6.20
2018-07-09T18:24:53.410Z,5.03
2018-07-09T18:27:25.682Z,5.43
2018-07-09T18:29:57.804Z,5.77
2018-07-09T18:32:29.935Z,5.30
2018-07-09T18:35:02.018Z,5.30
2018-07-09T18:37:34.149Z,5.20
2018-07-09T18:40:06.321Z,5.30
2018-07-09T18:42:38.470Z,5.57
2018-07-09T18:45:10.610Z,5.53
2018-07-09T18:47:42.670Z,5.40
2018-07-09T18:50:14.818Z,6.00
2018-07-09T18:52:46.998Z,5.40
2018-07-09T18:55:19.161Z,5.40
2018-07-09T18:57:51.409Z,5.80
2018-07-09T19:00:23.525Z,5.30
2018-07-09T19:02:55.690Z,5.77
2018-07-09T19:05:41.869Z,4.90
2018-07-09T19:08:14.068Z,5.60
2018-07-09T19:10:46.283Z,5.90
2018-07-09T19:13:18.519Z,5.33
2018-07-09T19:15:50.688Z,5.13
2018-07-09T19:18:34.405Z,5.93
2018-07-09T19:21:30.679Z,5.70
2018-07-09T19:24:03.021Z,5.77
2018-07-09T19:26:34.409Z,5.73
2018-07-09T19:29:05.570Z,5.53
2018-07-09T19:31:36.697Z,6.00
2018-07-09T19:34:08.274Z,5.23
2018-07-09T19:36:39.506Z,5.40
2018-07-09T19:39:11.417Z,5.37
2018-07-09T19:41:42.648Z,5.60
2018-07-09T19:44:14.974Z,5.50
2018-07-09T19:46:46.135Z,5.17
2018-07-09T19:49:17.259Z,5.30
2018-07-09T19:51:48.407Z,5.23
2018-07-09T19:54:19.528Z,4.97
2018-07-09T19:56:50.662Z,4.97
2018-07-09T19:59:21.828Z,5.30
2018-07-09T20:01:52.960Z,5.00
2018-07-09T20:04:24.201Z,5.50
2018-07-09T20:06:55.449Z,4.80
2018-07-09T20:09:32.290Z,4.03
2018-07-09T20:13:06.740Z,4.43
2018-07-09T20:15:43.584Z,4.47
2018-07-09T20:18:14.742Z,4.40
2018-07-09T20:20:46.018Z,4.27
2018-07-09T20:23:17.155Z,4.33
2018-07-09T20:25:48.525Z,3.97
2018-07-09T20:28:19.696Z,4.30
2018-07-09T20:30:50.933Z,4.07
2018-07-09T20:33:22.058Z,4.40
2018-07-09T20:35:53.266Z,4.07
2018-07-09T20:38:24.459Z,4.43
2018-07-09T20:40:55.794Z,4.73
2018-07-09T20:43:27.012Z,4.77
2018-07-09T20:45:58.174Z,4.03
2018-07-09T20:48:29.365Z,3.70
2018-07-09T20:51:00.506Z,3.67
2018-07-09T20:53:31.661Z,4.23
2018-07-09T20:56:02.933Z,4.13
2018-07-09T20:58:34.857Z,4.07
2018-07-09T21:01:06.011Z,4.10
2018-07-09T21:03:37.300Z,3.80
2018-07-09T21:06:10.648Z,3.73
2018-07-09T21:08:41.860Z,3.60
2018-07-09T21:11:13.061Z,3.90
2018-07-09T21:13:44.219Z,3.00
2018-07-09T21:16:15.527Z,3.30
2018-07-09T21:18:46.560Z,3.50
2018-07-09T21:21:17.790Z,2.67
2018-07-09T21:23:48.960Z,2.60
2018-07-09T21:26:20.076Z,2.70
2018-07-09T21:28:51.225Z,2.80
2018-07-09T21:31:22.358Z,2.50
2018-07-09T21:33:53.475Z,2.20
2018-07-09T21:36:24.588Z,2.97
2018-07-09T21:38:55.714Z,2.63
2018-07-09T21:41:26.828Z,3.00
2018-07-09T21:43:57.972Z,2.93
2018-07-09T21:46:29.168Z,2.80
2018-07-09T21:49:00.300Z,2.60
2018-07-09T21:51:31.415Z,2.60
2018-07-09T21:54:02.556Z,2.40
2018-07-09T21:56:33.682Z,2.57
2018-07-09T21:59:04.827Z,2.43
2018-07-09T22:01:35.981Z,3.30
2018-07-09T22:04:07.135Z,2.40
2018-07-09T22:06:38.295Z,2.47
2018-07-09T22:09:09.388Z,1.60
2018-07-09T22:11:40.520Z,2.37
2018-07-09T22:14:11.738Z,2.27
2018-07-09T22:16:42.913Z,2.10
2018-07-09T22:19:14.667Z,2.40
2018-07-09T22:21:45.861Z,2.60
2018-07-09T22:24:16.998Z,2.40
2018-07-09T22:26:48.128Z,2.10
2018-07-09T22:29:19.251Z,2.30
2018-07-09T22:31:51.439Z,2.20
2018-07-09T22:34:23.570Z,2.37
2018-07-09T22:36:55.776Z,2.30
2018-07-09T22:39:28.041Z,2.23
2018-07-09T22:42:00.283Z,2.00
2018-07-09T22:44:32.456Z,2.00
2018-07-09T22:47:04.590Z,2.20
2018-07-09T22:49:36.840Z,2.07
2018-07-09T22:52:08.977Z,1.87
2018-07-09T22:54:41.181Z,2.20
2018-07-09T22:57:13.388Z,2.60
2018-07-09T22:59:45.615Z,3.40
2018-07-09T23:02:17.781Z,2.10
2018-07-09T23:04:49.963Z,1.90
2018-07-09T23:07:22.116Z,2.30
2018-07-09T23:10:14.605Z,1.97
2018-07-09T23:14:23.942Z,2.10
2018-07-09T23:17:07.643Z,1.70
2018-07-09T23:21:55.268Z,2.10
2018-07-09T23:24:26.892Z,1.93
2018-07-09T23:26:58.070Z,1.80
2018-07-09T23:29:29.233Z,2.00
2018-07-09T23:32:00.470Z,1.57
2018-07-09T23:34:31.706Z,2.43
2018-07-09T23:37:02.862Z,1.80
2018-07-09T23:39:33.983Z,1.73
2018-07-09T23:42:05.171Z,1.60
2018-07-09T23:44:36.263Z,1.73
2018-07-09T23:47:07.415Z,1.53
2018-07-09T23:49:38.554Z,1.70
2018-07-09T23:52:09.707Z,1.80
2018-07-09T23:54:40.863Z,1.67
2018-07-09T23:57:54.896Z,2.13
